Time;durP1;ratioP1;P1;durP2;ratioP2;P2;SDS_P1;SDS_P2;PMS_P1;PMS_P2;Temp;Humidity;BMP_temperature;BMP_pressure;BME280_temperature;BME280_humidity;BME280_pressure;Samples;Min_cycle;Max_cycle;Signal;HPM_P1;HPM_P2
2021/10/11 03:31:13;;;;;;;20.60;15.30;;;;;;;9.37;57.46;99641.28;7981300;23;20247;-83
2021/10/11 03:34:34;;;;;;;20.37;15.57;;;;;;;8.85;58.73;99636.63;6910600;28;20207;-81
2021/10/11 03:37:56;;;;;;;21.13;15.30;;;;;;;9.09;58.64;99644.63;6897711;28;20201;-81
2021/10/11 03:41:17;;;;;;;22.07;16.63;;;;;;;9.22;59.06;99629.56;6892915;28;20251;-82
2021/10/11 03:44:39;;;;;;;20.33;16.17;;;;;;;9.24;59.07;99642.84;6892355;28;20239;-82
2021/10/11 03:48:02;;;;;;;23.17;16.20;;;;;;;9.02;58.93;99635.56;6893427;28;20216;-81
2021/10/11 03:51:23;;;;;;;22.67;17.33;;;;;;;9.13;58.72;99627.09;6893219;28;20246;-82
2021/10/11 03:54:45;;;;;;;20.27;16.00;;;;;;;9.04;58.41;99617.41;6894585;28;20606;-82
2021/10/11 03:58:07;;;;;;;20.73;15.47;;;;;;;8.74;58.53;99598.56;6893834;28;20211;-82
2021/10/11 04:01:28;;;;;;;22.80;17.10;;;;;;;8.73;59.21;99611.16;6893330;28;20707;-83
2021/10/11 04:04:51;;;;;;;20.37;16.07;;;;;;;8.75;59.43;99611.81;6896760;28;20223;-82
2021/10/11 04:08:14;;;;;;;22.17;15.97;;;;;;;8.67;59.26;99603.78;6898916;28;20218;-82
2021/10/11 04:11:38;;;;;;;21.80;16.17;;;;;;;8.64;59.53;99605.97;6895302;28;20235;-82
2021/10/11 04:14:59;;;;;;;20.83;16.20;;;;;;;8.84;59.39;99607.25;6918655;28;20200;-82
2021/10/11 04:18:21;;;;;;;20.00;15.83;;;;;;;8.63;59.42;99604.31;6917911;28;20774;-82
2021/10/11 04:21:44;;;;;;;21.60;16.57;;;;;;;8.69;60.40;99617.91;6913446;28;20452;-82
2021/10/11 04:25:07;;;;;;;20.50;15.67;;;;;;;8.14;61.18;99610.78;6913494;28;20665;-83
2021/10/11 04:28:29;;;;;;;22.77;18.23;;;;;;;8.77;62.51;99615.16;6921218;28;20196;-83
2021/10/11 04:31:51;;;;;;;25.87;17.73;;;;;;;9.33;60.95;99613.03;6906519;28;20228;-86
2021/10/11 04:35:12;;;;;;;22.17;16.00;;;;;;;9.67;60.08;99620.69;6903611;28;20590;-81
2021/10/11 04:38:35;;;;;;;22.53;17.03;;;;;;;9.45;60.59;99619.69;6927063;28;20224;-82
2021/10/11 04:41:57;;;;;;;20.47;14.00;;;;;;;9.75;58.34;99623.34;6925184;28;20299;-81
2021/10/11 04:45:18;;;;;;;16.73;13.97;;;;;;;9.54;57.63;99615.09;6927123;28;20207;-81
2021/10/11 04:48:40;;;;;;;20.93;15.03;;;;;;;9.26;57.89;99632.75;6911538;28;20200;-82
2021/10/11 04:52:02;;;;;;;19.27;14.23;;;;;;;8.98;59.39;99643.16;6900453;28;20228;-80
2021/10/11 04:55:24;;;;;;;17.63;13.00;;;;;;;9.13;58.05;99643.25;6920714;28;20202;-81
2021/10/11 04:58:49;;;;;;;19.17;14.13;;;;;;;8.52;58.79;99661.97;6925548;28;20205;-81
2021/10/11 05:02:10;;;;;;;17.23;13.50;;;;;;;8.91;57.77;99653.94;6929718;28;20734;-81
2021/10/11 05:05:33;;;;;;;18.10;13.87;;;;;;;8.88;58.55;99638.16;6931525;28;20208;-81
2021/10/11 05:08:59;;;;;;;26.10;17.07;;;;;;;8.43;60.12;99646.84;6925535;28;20673;-82
2021/10/11 05:12:22;;;;;;;21.40;15.63;;;;;;;8.43;61.43;99638.78;6923950;28;20238;-82
2021/10/11 05:15:44;;;;;;;25.00;17.80;;;;;;;9.07;59.55;99633.19;6924613;28;20207;-81
2021/10/11 05:19:06;;;;;;;26.17;19.13;;;;;;;9.15;59.10;99646.63;6925814;28;20202;-82
2021/10/11 05:22:27;;;;;;;25.67;19.30;;;;;;;9.23;58.96;99641.19;6926010;28;20692;-82
2021/10/11 05:25:49;;;;;;;24.83;18.97;;;;;;;8.85;59.96;99658.16;6926397;28;20200;-81
2021/10/11 05:29:12;;;;;;;24.27;17.97;;;;;;;8.22;61.98;99664.50;6926116;28;20219;-81
2021/10/11 05:32:34;;;;;;;26.27;18.83;;;;;;;8.23;62.10;99674.25;6924150;28;20236;-83
2021/10/11 05:35:55;;;;;;;22.67;16.00;;;;;;;8.84;60.61;99669.94;6924495;28;20257;-84
2021/10/11 05:39:17;;;;;;;22.53;16.83;;;;;;;8.96;59.71;99692.75;6914564;28;20212;-83
2021/10/11 05:42:39;;;;;;;21.20;17.40;;;;;;;9.21;58.38;99656.69;6896587;28;20217;-84
2021/10/11 05:46:02;;;;;;;24.77;18.43;;;;;;;8.83;58.83;99659.38;6897349;28;20207;-85
2021/10/11 05:49:24;;;;;;;22.67;18.43;;;;;;;8.71;59.45;99658.88;6896847;28;20203;-83
2021/10/11 05:52:45;;;;;;;26.80;19.47;;;;;;;9.03;58.78;99662.28;6903256;28;20237;-83
2021/10/11 05:56:07;;;;;;;24.87;18.07;;;;;;;9.03;59.07;99666.84;6923582;28;20206;-84
2021/10/11 05:59:28;;;;;;;28.10;19.60;;;;;;;8.88;59.41;99676.63;6897010;28;20203;-84
2021/10/11 06:02:51;;;;;;;26.73;17.77;;;;;;;8.49;60.56;99678.41;6911582;28;20226;-86
2021/10/11 06:06:13;;;;;;;27.00;19.80;;;;;;;8.59;61.21;99689.81;6895141;28;20211;-83
2021/10/11 06:09:35;;;;;;;29.73;19.97;;;;;;;8.97;60.38;99688.22;6905092;28;20796;-85
2021/10/11 06:12:57;;;;;;;22.30;17.73;;;;;;;9.02;60.19;99681.28;6910009;28;20254;-81
2021/10/11 06:16:18;;;;;;;22.90;18.20;;;;;;;9.01;59.96;99698.44;6914501;28;20215;-83
2021/10/11 06:19:41;;;;;;;24.67;18.20;;;;;;;9.36;59.34;99685.34;6895454;28;20208;-82
2021/10/11 06:23:03;;;;;;;22.30;17.87;;;;;;;9.07;58.95;99680.78;6894544;28;20239;-81
2021/10/11 06:26:24;;;;;;;25.13;18.13;;;;;;;9.38;59.14;99702.16;6895122;28;20212;-82
2021/10/11 06:29:46;;;;;;;25.90;19.70;;;;;;;9.38;58.78;99701.31;6915499;28;20274;-83
2021/10/11 06:33:08;;;;;;;26.27;17.17;;;;;;;8.57;60.66;99696.38;6924019;28;20243;-83
2021/10/11 06:36:34;;;;;;;23.80;18.00;;;;;;;9.29;60.53;99705.06;6918781;28;20201;-80
2021/10/11 06:39:56;;;;;;;21.50;17.30;;;;;;;9.64;59.33;99713.44;6913475;28;20211;-84
2021/10/11 06:43:18;;;;;;;23.73;17.17;;;;;;;9.87;58.62;99721.56;6909767;28;20231;-83
2021/10/11 06:46:39;;;;;;;24.97;17.47;;;;;;;10.30;57.90;99710.16;6921830;28;20660;-82
2021/10/11 06:50:01;;;;;;;18.50;15.30;;;;;;;10.88;55.83;99700.31;6900006;28;20200;-82
2021/10/11 06:53:24;;;;;;;19.73;15.37;;;;;;;11.06;55.06;99695.41;6897749;28;20239;-82
2021/10/11 06:56:46;;;;;;;21.07;16.03;;;;;;;11.37;53.43;99689.75;6897537;28;20550;-82
2021/10/11 07:00:08;;;;;;;19.93;15.90;;;;;;;11.19;54.24;99684.78;6903748;28;20214;-81
2021/10/11 07:03:30;;;;;;;21.90;16.57;;;;;;;11.51;54.38;99680.81;6896230;28;20220;-82
2021/10/11 07:06:52;;;;;;;19.70;15.70;;;;;;;11.71;54.56;99698.09;6894482;28;20237;-83
2021/10/11 07:10:15;;;;;;;20.30;16.70;;;;;;;11.67;55.20;99694.94;6891887;28;20222;-83
2021/10/11 07:13:37;;;;;;;18.10;14.37;;;;;;;12.73;51.85;99696.59;6892088;28;20204;-82
2021/10/11 07:16:59;;;;;;;18.07;13.83;;;;;;;12.79;52.53;99703.06;6893137;28;20204;-83
2021/10/11 07:20:20;;;;;;;21.03;15.40;;;;;;;12.78;51.20;99690.56;6900758;28;20572;-83
2021/10/11 07:23:42;;;;;;;16.97;15.13;;;;;;;12.50;52.71;99703.25;6908656;28;20212;-83
2021/10/11 07:27:05;;;;;;;20.70;16.50;;;;;;;12.87;52.95;99721.88;6891328;28;20209;-82
2021/10/11 07:30:27;;;;;;;20.90;15.80;;;;;;;13.40;50.92;99715.78;6892182;28;20204;-82
2021/10/11 07:33:51;;;;;;;21.37;15.53;;;;;;;12.97;51.28;99715.09;6891985;28;20210;-84
2021/10/11 07:37:12;;;;;;;18.13;15.20;;;;;;;13.53;50.28;99711.25;6892449;28;20214;-85
2021/10/11 07:40:34;;;;;;;21.23;14.57;;;;;;;13.65;50.06;99706.09;6894419;28;20729;-84
2021/10/11 07:43:57;;;;;;;19.10;13.97;;;;;;;13.19;51.57;99718.56;6922893;28;20210;-84
2021/10/11 07:47:28;;;;;;;20.97;15.67;;;;;;;13.68;51.29;99725.47;6900093;28;20209;-86
2021/10/11 07:50:53;;;;;;;19.97;14.20;;;;;;;14.12;51.24;99739.41;6908888;28;20227;-90
2021/10/11 07:54:23;;;;;;;15.80;13.13;;;;;;;13.78;50.07;99687.16;6920670;28;20213;-90
2021/10/11 08:02:06;;;;;;;17.70;14.27;;;;;;;13.94;50.99;99736.44;6899261;28;20230;-89
2021/10/11 08:05:28;;;;;;;16.80;13.17;;;;;;;15.22;48.95;99730.44;6929707;28;20208;-88
2021/10/11 08:08:51;;;;;;;19.67;12.47;;;;;;;15.61;46.23;99683.31;6931102;28;20218;-88
2021/10/11 08:12:21;;;;;;;14.73;12.30;;;;;;;15.73;46.45;99734.09;6920826;28;20230;-88
2021/10/11 08:15:46;;;;;;;17.00;13.47;;;;;;;15.83;46.03;99681.97;6925994;28;20196;-91
2021/10/11 08:19:09;;;;;;;16.87;11.53;;;;;;;16.41;44.82;99727.91;6906115;28;20211;-91
2021/10/11 08:22:35;;;;;;;18.53;13.93;;;;;;;15.86;45.87;99730.50;6911524;28;20228;-90
2021/10/11 08:25:57;;;;;;;19.00;14.37;;;;;;;15.34;46.95;99685.31;6923898;28;20223;-90
2021/10/11 08:29:19;;;;;;;14.70;12.70;;;;;;;15.02;48.19;99699.78;6932162;28;20199;-90
2021/10/11 08:32:41;;;;;;;14.10;12.57;;;;;;;15.52;48.04;99722.69;6922510;28;20240;-90
2021/10/11 08:36:05;;;;;;;15.13;12.90;;;;;;;15.46;47.51;99729.78;6921643;28;20205;-88
2021/10/11 08:39:26;;;;;;;16.43;12.27;;;;;;;15.92;47.15;99735.06;6921379;28;20695;-88
2021/10/11 08:42:49;;;;;;;16.60;12.67;;;;;;;15.06;48.27;99724.66;6918648;28;20240;-86
2021/10/11 08:46:11;;;;;;;14.80;11.87;;;;;;;16.16;45.99;99718.81;6919767;28;20216;-86
2021/10/11 08:49:33;;;;;;;15.03;12.83;;;;;;;16.76;45.24;99736.44;6919968;28;20226;-84
2021/10/11 08:52:56;;;;;;;15.53;12.47;;;;;;;17.18;43.83;99716.53;6924104;28;20272;-84
2021/10/11 08:56:17;;;;;;;13.73;11.63;;;;;;;17.18;42.62;99722.00;6907803;28;20212;-84
2021/10/11 08:59:39;;;;;;;16.90;12.93;;;;;;;16.36;45.75;99721.41;6896014;28;20708;-84
2021/10/11 09:03:01;;;;;;;20.07;12.63;;;;;;;16.81;44.29;99707.44;6919397;28;20586;-84
2021/10/11 09:06:23;;;;;;;14.73;12.07;;;;;;;17.16;43.08;99714.03;6923722;28;20252;-84
2021/10/11 09:09:47;;;;;;;15.37;11.37;;;;;;;17.11;42.77;99700.25;6924306;28;20212;-83
2021/10/11 09:13:11;;;;;;;18.20;12.57;;;;;;;17.22;42.63;99702.22;6923660;28;20731;-84
2021/10/11 09:16:34;;;;;;;20.70;13.67;;;;;;;17.44;43.86;99708.94;6924382;28;20735;-84
2021/10/11 09:19:59;;;;;;;20.17;12.43;;;;;;;17.23;42.60;99694.91;6925225;28;20295;-83
2021/10/11 09:23:23;;;;;;;16.67;11.60;;;;;;;16.87;44.08;99687.50;6905823;28;20222;-85
2021/10/11 09:26:48;;;;;;;13.93;12.17;;;;;;;17.45;42.72;99679.81;6896747;28;20679;-86
2021/10/11 09:30:14;;;;;;;16.23;12.20;;;;;;;17.44;42.03;99684.41;6896954;28;20203;-85
2021/10/11 09:33:36;;;;;;;17.20;12.47;;;;;;;17.93;42.25;99684.19;6895360;28;20246;-84
2021/10/11 09:36:59;;;;;;;18.53;12.40;;;;;;;18.07;43.15;99696.59;6917967;28;20657;-85
2021/10/11 09:40:23;;;;;;;15.93;12.47;;;;;;;18.46;40.35;99695.22;6921515;28;20290;-81
2021/10/11 09:43:46;;;;;;;23.73;14.80;;;;;;;18.20;41.91;99668.25;6896070;28;20224;-82
2021/10/11 09:47:09;;;;;;;22.33;15.57;;;;;;;18.42;41.97;99705.78;6896907;28;20230;-80
2021/10/11 09:50:31;;;;;;;35.83;21.03;;;;;;;18.45;41.89;99699.81;6896446;28;20723;-82
2021/10/11 09:53:54;;;;;;;23.97;14.60;;;;;;;18.12;41.90;99710.38;6895966;28;20227;-81
2021/10/11 09:57:16;;;;;;;19.87;13.70;;;;;;;17.67;42.24;99695.44;6897134;28;20213;-86
2021/10/11 10:00:39;;;;;;;17.10;12.43;;;;;;;17.47;42.82;99688.56;6897091;28;20223;-81
2021/10/11 10:04:02;;;;;;;16.90;12.67;;;;;;;18.19;41.28;99669.31;6903501;28;20426;-84
2021/10/11 10:07:25;;;;;;;21.53;14.53;;;;;;;18.66;39.77;99685.63;6913598;28;20204;-83
2021/10/11 10:10:48;;;;;;;17.67;13.20;;;;;;;18.65;38.94;99664.84;6926672;28;20247;-84
2021/10/11 10:14:19;;;;;;;14.37;12.37;;;;;;;18.49;40.87;99679.19;6920945;28;20285;-86
2021/10/11 10:17:42;;;;;;;14.97;12.13;;;;;;;18.61;40.20;99676.47;6922125;28;20194;-82
2021/10/11 10:21:04;;;;;;;15.13;12.87;;;;;;;18.85;39.56;99665.31;6921677;28;20231;-83
2021/10/11 10:24:29;;;;;;;14.50;12.10;;;;;;;18.41;39.39;99676.78;6922168;28;20204;-82
2021/10/11 10:27:54;;;;;;;15.07;12.77;;;;;;;19.27;39.02;99675.06;6896574;28;20247;-82
2021/10/11 10:31:26;;;;;;;16.47;11.63;;;;;;;19.42;37.89;99639.88;6894479;28;20791;-82
2021/10/11 10:34:59;;;;;;;17.90;13.50;;;;;;;19.22;38.38;99646.81;6894584;28;20205;-82
2021/10/11 10:38:22;;;;;;;17.73;12.40;;;;;;;20.36;35.68;99669.38;6920267;28;20196;-82
2021/10/11 10:41:45;;;;;;;17.53;12.17;;;;;;;19.76;37.75;99669.00;6920730;28;20223;-85
2021/10/11 10:45:15;;;;;;;18.03;11.97;;;;;;;19.57;37.03;99681.19;6920983;28;20207;-84
2021/10/11 10:48:47;;;;;;;20.07;13.67;;;;;;;18.93;38.17;99662.22;6920902;28;20192;-83
2021/10/11 10:52:12;;;;;;;14.97;12.63;;;;;;;18.76;38.95;99666.72;6917993;28;20223;-86
2021/10/11 10:55:35;;;;;;;14.67;12.07;;;;;;;19.24;38.21;99655.59;6917595;28;20207;-82
2021/10/11 10:59:03;;;;;;;15.63;12.90;;;;;;;19.44;37.93;99653.28;6902901;28;20274;-86
2021/10/11 11:02:26;;;;;;;16.80;13.57;;;;;;;19.79;37.12;99645.78;6919859;28;20223;-84
2021/10/11 11:05:51;;;;;;;14.47;12.53;;;;;;;19.70;37.51;99628.94;6919681;28;20196;-83
2021/10/11 11:09:14;;;;;;;18.67;13.10;;;;;;;20.23;36.42;99628.59;6919662;28;20672;-83
2021/10/11 11:12:38;;;;;;;19.07;13.60;;;;;;;19.92;38.22;99631.84;6910363;28;20225;-82
2021/10/11 11:16:00;;;;;;;16.90;14.40;;;;;;;19.90;37.98;99618.38;6893066;28;20318;-82
2021/10/11 11:19:22;;;;;;;17.40;13.87;;;;;;;20.26;37.40;99614.41;6892591;28;20294;-82
2021/10/11 11:22:44;;;;;;;17.47;13.43;;;;;;;20.29;37.15;99612.00;6893099;28;20586;-84
2021/10/11 11:26:08;;;;;;;16.73;13.63;;;;;;;19.44;38.50;99613.09;6894773;28;20204;-83
2021/10/11 11:29:30;;;;;;;21.10;14.97;;;;;;;19.48;38.29;99610.69;6890892;28;20208;-81
2021/10/11 11:32:54;;;;;;;19.30;14.63;;;;;;;19.29;39.50;99609.22;6897205;28;20227;-82
2021/10/11 11:36:16;;;;;;;20.57;14.47;;;;;;;19.93;37.46;99603.38;6919603;28;20207;-82
2021/10/11 11:39:38;;;;;;;16.93;13.97;;;;;;;19.78;38.11;99614.03;6919674;28;20208;-83
2021/10/11 11:43:01;;;;;;;19.37;14.87;;;;;;;20.01;37.53;99609.28;6918708;28;20231;-81
2021/10/11 11:46:23;;;;;;;15.57;13.97;;;;;;;20.09;36.60;99610.81;6918351;28;20218;-83
2021/10/11 11:49:45;;;;;;;17.47;13.97;;;;;;;20.20;36.61;99598.97;6919248;28;20213;-80
2021/10/11 11:53:08;;;;;;;16.87;14.73;;;;;;;19.38;38.58;99610.47;6914706;28;20233;-81
2021/10/11 11:56:30;;;;;;;18.60;14.60;;;;;;;19.97;37.52;99599.06;6891881;28;20231;-81
2021/10/11 11:59:54;;;;;;;16.90;13.10;;;;;;;20.53;36.60;99597.09;6891319;28;20292;-81
2021/10/11 12:03:17;;;;;;;17.80;13.80;;;;;;;20.53;36.30;99591.59;6892562;28;20240;-80
2021/10/11 12:06:39;;;;;;;20.70;14.67;;;;;;;20.33;37.42;99574.00;6892414;28;20570;-81
2021/10/11 12:10:01;;;;;;;19.37;15.10;;;;;;;19.91;38.46;99603.63;6896555;28;20204;-80
2021/10/11 12:13:22;;;;;;;15.87;13.93;;;;;;;19.20;38.76;99578.66;6917861;28;20262;-80
2021/10/11 12:16:45;;;;;;;17.20;13.83;;;;;;;19.63;37.92;99570.78;6918590;28;20208;-79
2021/10/11 12:20:08;;;;;;;16.63;13.67;;;;;;;19.87;37.95;99544.97;6918581;28;20222;-81
2021/10/11 12:23:37;;;;;;;19.67;13.73;;;;;;;20.08;37.68;99565.34;6917564;28;20703;-82
2021/10/11 12:27:02;;;;;;;23.10;15.10;;;;;;;19.16;39.20;99565.72;6924077;28;20203;-80
2021/10/11 12:30:26;;;;;;;16.10;14.27;;;;;;;20.21;37.54;99549.44;6924014;28;20208;-80
2021/10/11 12:33:50;;;;;;;19.13;14.00;;;;;;;20.48;37.00;99566.03;6923285;28;20212;-81
2021/10/11 12:37:13;;;;;;;16.23;13.00;;;;;;;20.09;36.37;99561.53;6923581;28;20295;-80
2021/10/11 12:40:35;;;;;;;16.23;13.30;;;;;;;20.01;36.20;99557.28;6900725;28;20247;-81
2021/10/11 12:43:58;;;;;;;18.37;13.60;;;;;;;19.85;37.72;99563.56;6905613;28;20567;-81
2021/10/11 12:47:23;;;;;;;15.30;13.07;;;;;;;20.18;36.77;99554.56;6908555;28;20341;-81
2021/10/11 12:50:54;;;;;;;17.17;13.30;;;;;;;20.06;36.63;99538.25;6923984;28;20265;-82
2021/10/11 12:54:18;;;;;;;13.97;12.33;;;;;;;20.50;36.01;99563.84;6914754;28;20236;-81
2021/10/11 12:57:55;;;;;;;16.17;12.20;;;;;;;20.62;35.54;99556.34;6897512;28;20572;-81
2021/10/11 13:01:16;;;;;;;19.53;13.07;;;;;;;20.39;36.27;99557.38;6786616;29;20227;-80
2021/10/11 13:04:38;;;;;;;14.43;12.37;;;;;;;19.52;37.16;99547.03;6786264;29;20215;-81
2021/10/11 13:08:01;;;;;;;18.30;12.73;;;;;;;19.91;37.28;99548.88;6786747;29;20206;-81
2021/10/11 13:11:22;;;;;;;17.13;12.63;;;;;;;20.14;37.10;99551.50;6786697;29;20231;-81
2021/10/11 13:14:44;;;;;;;17.03;12.87;;;;;;;20.12;36.41;99559.16;6785619;29;20227;-81
2021/10/11 13:18:07;;;;;;;18.50;13.00;;;;;;;20.34;36.86;99553.75;6804635;29;20219;-81
2021/10/11 13:21:29;;;;;;;14.60;12.83;;;;;;;20.48;37.23;99541.34;6795478;29;20285;-81
2021/10/11 13:24:52;;;;;;;15.77;12.80;;;;;;;20.52;36.92;99546.06;6798358;29;20218;-81
2021/10/11 13:28:14;;;;;;;15.10;12.43;;;;;;;20.28;37.00;99519.97;6796441;29;20341;-81
2021/10/11 14:26:32;;;;;;;25.10;18.87;;;;;;;18.94;43.21;99546.38;6920285;28;20204;-81
2021/10/11 14:29:57;;;;;;;23.43;19.27;;;;;;;18.75;43.58;99549.50;6921051;28;20214;-81
2021/10/11 14:33:36;;;;;;;28.57;21.67;;;;;;;18.56;43.95;99545.22;6920275;28;20241;-81
2021/10/11 16:01:18;;;;;;;48.57;34.57;;;;;;;16.23;53.35;99580.81;6929369;28;20207;-84
2021/10/11 16:04:40;;;;;;;54.10;37.50;;;;;;;16.20;54.33;99567.66;6932738;28;20508;-84
2021/10/11 16:08:03;;;;;;;48.47;36.33;;;;;;;16.31;54.27;99553.34;6908319;28;20206;-84
2021/10/11 16:11:24;;;;;;;54.13;36.77;;;;;;;16.25;54.07;99592.31;6898537;28;20207;-82
2021/10/11 16:14:46;;;;;;;49.80;35.50;;;;;;;16.14;55.15;99584.03;6897777;28;20577;-84
2021/10/11 16:18:08;;;;;;;49.33;36.63;;;;;;;16.78;53.43;99587.22;6898189;28;20736;-84
2021/10/11 16:21:30;;;;;;;51.27;37.03;;;;;;;16.46;54.03;99596.56;6913050;28;20209;-84
2021/10/11 16:24:53;;;;;;;45.30;34.87;;;;;;;16.53;53.71;99587.28;6925342;28;20240;-84
2021/10/11 16:28:14;;;;;;;50.00;36.23;;;;;;;16.72;53.11;99596.31;6925710;28;20208;-84
2021/10/11 16:31:36;;;;;;;51.97;36.43;;;;;;;16.33;54.26;99588.50;6912549;28;20229;-84
2021/10/11 16:34:58;;;;;;;48.20;34.10;;;;;;;15.96;54.62;99544.00;6898232;28;20234;-84
2021/10/11 16:38:19;;;;;;;51.57;38.23;;;;;;;16.54;53.96;99604.44;6898694;28;20207;-84
2021/10/11 16:41:43;;;;;;;51.13;36.20;;;;;;;16.40;54.20;99608.34;6897804;28;20608;-83
2021/10/11 16:45:06;;;;;;;53.87;37.47;;;;;;;16.63;53.06;99581.34;6896540;28;20235;-84
2021/10/11 16:48:28;;;;;;;54.63;38.23;;;;;;;16.52;53.81;99604.66;6903257;28;20225;-81
2021/10/11 16:51:49;;;;;;;56.77;38.17;;;;;;;16.94;53.32;99624.78;6912456;28;20199;-81
2021/10/11 16:55:11;;;;;;;54.57;38.03;;;;;;;16.96;53.05;99614.47;6893800;28;20244;-82
2021/10/11 16:58:34;;;;;;;53.57;37.87;;;;;;;16.40;54.56;99594.75;6894596;28;20213;-81
2021/10/11 17:01:56;;;;;;;51.43;38.70;;;;;;;16.67;53.61;99591.53;6893719;28;20688;-84
2021/10/11 17:05:18;;;;;;;52.57;37.67;;;;;;;16.86;53.48;99606.03;6895187;28;20230;-83
2021/10/11 17:08:40;;;;;;;54.57;38.03;;;;;;;17.07;52.92;99605.56;6894825;28;20568;-83
2021/10/11 17:12:02;;;;;;;54.17;38.10;;;;;;;17.10;52.98;99621.47;6895907;28;20213;-82
2021/10/11 17:15:25;;;;;;;57.23;38.57;;;;;;;16.90;53.31;99599.03;6899362;28;20745;-81
2021/10/11 17:18:47;;;;;;;51.33;37.73;;;;;;;17.31;52.37;99607.34;6925046;28;20202;-82
2021/10/11 17:22:08;;;;;;;59.43;40.17;;;;;;;17.13;52.44;99608.22;6913264;28;20210;-83
2021/10/11 17:25:30;;;;;;;57.83;39.63;;;;;;;17.04;52.98;99606.84;6897827;28;20237;-81
2021/10/11 17:28:52;;;;;;;64.93;42.37;;;;;;;17.09;53.19;99612.44;6896538;28;20204;-82
2021/10/11 17:32:15;;;;;;;55.10;37.47;;;;;;;17.42;52.13;99612.06;6882184;28;20201;-82
2021/10/11 17:35:37;;;;;;;53.17;38.33;;;;;;;17.39;52.00;99618.00;6881045;28;20231;-82
2021/10/11 17:38:59;;;;;;;50.53;36.87;;;;;;;17.45;51.33;99598.81;6883635;28;20244;-82
2021/10/11 17:42:20;;;;;;;52.63;37.93;;;;;;;17.36;52.25;99624.72;6890325;28;20212;-82
2021/10/11 17:45:42;;;;;;;55.03;39.97;;;;;;;16.64;54.46;99624.66;6897961;28;20586;-81
2021/10/11 17:49:05;;;;;;;59.03;40.17;;;;;;;16.60;54.75;99609.00;6897436;28;20219;-82
2021/10/11 17:52:27;;;;;;;53.33;38.70;;;;;;;16.97;54.05;99625.16;6898344;28;20210;-82
2021/10/11 17:55:49;;;;;;;59.43;41.00;;;;;;;17.04;53.72;99631.38;6893408;28;20241;-82
2021/10/11 17:59:11;;;;;;;53.67;40.07;;;;;;;16.98;53.06;99604.22;6900181;28;20208;-81
2021/10/11 18:02:32;;;;;;;60.57;40.53;;;;;;;16.58;53.89;99590.16;6890222;28;20206;-81
2021/10/11 18:05:55;;;;;;;60.27;41.60;;;;;;;16.94;53.68;99624.78;6873601;28;20229;-81
2021/10/11 18:09:17;;;;;;;58.63;43.17;;;;;;;16.81;53.82;99606.66;6889778;28;20209;-81
2021/10/11 18:12:39;;;;;;;54.10;40.70;;;;;;;17.10;53.57;99630.47;6882448;28;20761;-80
2021/10/11 18:16:01;;;;;;;60.93;42.27;;;;;;;17.08;53.15;99607.22;6896926;28;20213;-81
2021/10/11 18:19:22;;;;;;;56.00;41.70;;;;;;;17.02;53.52;99629.91;6896780;28;20204;-81
2021/10/11 18:22:45;;;;;;;62.07;41.57;;;;;;;16.61;54.44;99595.16;6893216;28;20242;-83
2021/10/11 18:26:09;;;;;;;59.37;41.00;;;;;;;16.78;54.44;99619.91;6898307;28;20211;-81
2021/10/11 18:29:30;;;;;;;61.53;41.90;;;;;;;16.94;53.78;99622.91;6898421;28;20214;-80
2021/10/11 18:32:52;;;;;;;60.20;41.43;;;;;;;16.59;54.61;99589.13;6895146;28;20237;-81
2021/10/11 18:36:14;;;;;;;59.63;42.00;;;;;;;16.80;54.56;99623.25;6909258;28;20212;-82
2021/10/11 18:39:37;;;;;;;65.00;46.13;;;;;;;16.79;54.61;99637.91;6895338;28;20206;-81
2021/10/11 18:42:59;;;;;;;67.97;45.33;;;;;;;16.55;55.23;99646.94;6877723;28;20691;-81
2021/10/11 18:46:20;;;;;;;65.93;45.57;;;;;;;16.69;54.69;99646.59;6896169;28;20219;-81
2021/10/11 18:49:42;;;;;;;67.37;45.70;;;;;;;16.53;55.39;99624.56;6896683;28;20209;-82
2021/10/11 18:53:04;;;;;;;68.27;45.00;;;;;;;16.62;55.04;99640.38;6896574;28;20722;-82
2021/10/11 18:56:27;;;;;;;62.50;43.03;;;;;;;16.97;54.22;99636.06;6897188;28;20209;-83
2021/10/11 18:59:48;;;;;;;61.03;41.17;;;;;;;16.84;54.06;99624.47;6896538;28;20209;-81
2021/10/11 19:03:11;;;;;;;57.33;39.93;;;;;;;17.04;53.68;99638.72;6891641;28;20237;-82
2021/10/11 19:06:32;;;;;;;60.83;41.77;;;;;;;17.06;53.52;99636.59;6891290;28;20211;-81
2021/10/11 19:09:54;;;;;;;60.97;40.27;;;;;;;16.96;53.73;99630.81;6897427;28;20576;-81
2021/10/11 19:13:18;;;;;;;61.17;41.97;;;;;;;16.82;53.78;99629.31;6896911;28;20246;-84
2021/10/11 19:16:40;;;;;;;68.60;45.87;;;;;;;16.41;55.79;99635.34;6874606;28;20220;-84
2021/10/11 19:20:02;;;;;;;67.07;44.37;;;;;;;16.62;55.31;99648.56;6875106;28;20280;-82
2021/10/11 19:23:23;;;;;;;61.70;44.10;;;;;;;16.47;55.65;99647.22;6896351;28;20238;-82
2021/10/11 19:26:45;;;;;;;63.20;42.40;;;;;;;16.60;55.27;99625.31;6890454;28;20203;-82
2021/10/11 19:30:24;;;;;;;64.40;43.40;;;;;;;16.58;55.25;99639.16;6894394;28;20266;-82
2021/10/11 19:33:46;;;;;;;65.43;41.73;;;;;;;16.60;55.04;99637.06;6834939;28;20370;-81
2021/10/11 19:37:07;;;;;;;65.53;43.50;;;;;;;16.56;54.92;99644.00;6837183;29;20220;-82
2021/10/11 19:40:30;;;;;;;66.80;44.80;;;;;;;16.46;54.79;99629.25;6835949;29;20214;-82
2021/10/11 19:43:51;;;;;;;59.20;38.43;;;;;;;16.17;55.29;99598.03;6828587;29;20373;-82
2021/10/11 19:47:14;;;;;;;63.83;41.63;;;;;;;15.76;56.63;99626.78;6809007;29;20232;-82
2021/10/11 19:50:36;;;;;;;68.57;43.03;;;;;;;15.32;58.61;99640.34;6833678;29;20761;-82
2021/10/11 19:53:58;;;;;;;66.53;41.60;;;;;;;15.47;58.68;99628.22;6835977;29;20710;-82
2021/10/11 19:57:19;;;;;;;62.60;41.70;;;;;;;15.74;57.89;99623.47;6837087;29;20221;-82
2021/10/11 20:00:41;;;;;;;64.87;41.37;;;;;;;15.64;57.16;99636.69;6835528;29;20206;-82
2021/10/11 20:04:04;;;;;;;76.00;44.07;;;;;;;15.47;57.70;99630.94;6836823;29;20225;-82
2021/10/11 20:07:26;;;;;;;60.90;41.37;;;;;;;15.70;56.40;99624.94;6836704;29;20218;-82
2021/10/11 20:10:48;;;;;;;65.77;44.27;;;;;;;15.36;57.01;99606.28;6868514;28;20202;-82
2021/10/11 20:14:10;;;;;;;57.37;39.67;;;;;;;15.45;55.87;99588.72;6894026;28;20239;-82
2021/10/11 20:17:32;;;;;;;55.73;39.17;;;;;;;15.57;55.99;99606.81;6873162;28;20213;-82
2021/10/11 20:20:55;;;;;;;58.93;39.67;;;;;;;15.48;56.29;99621.72;6869678;28;20217;-82
2021/10/11 20:24:19;;;;;;;62.77;42.23;;;;;;;15.18;57.35;99626.00;6885874;28;20219;-82
2021/10/11 20:27:42;;;;;;;59.23;40.33;;;;;;;15.02;57.08;99569.44;6923719;28;20205;-82
2021/10/11 20:31:03;;;;;;;58.70;39.87;;;;;;;15.00;57.03;99595.97;6917142;28;20207;-82
2021/10/11 20:34:25;;;;;;;57.90;38.63;;;;;;;14.73;57.92;99607.09;6895392;28;20235;-82
2021/10/11 20:37:48;;;;;;;65.30;39.23;;;;;;;14.57;58.10;99608.38;6895833;28;20202;-82
2021/10/11 20:41:10;;;;;;;71.17;43.43;;;;;;;14.01;59.70;99623.41;6885231;28;20202;-81
2021/10/11 20:44:32;;;;;;;64.90;40.23;;;;;;;14.47;58.80;99626.16;6885240;28;20228;-82
2021/10/11 20:47:54;;;;;;;59.57;40.80;;;;;;;14.54;58.40;99618.81;6898196;28;20253;-82
2021/10/11 20:51:15;;;;;;;64.07;41.27;;;;;;;14.42;58.42;99623.22;6902597;28;20211;-81
2021/10/11 20:54:38;;;;;;;61.67;41.50;;;;;;;14.37;57.64;99618.44;6874186;28;20570;-81
2021/10/11 20:58:05;;;;;;;61.77;39.97;;;;;;;14.37;57.41;99620.28;6888387;28;20224;-82
